createdAt,value
2016-01-29T00:00:54.542Z,0
2016-01-29T00:01:54.388Z,0
2016-01-29T00:02:54.532Z,0
2016-01-29T00:03:54.426Z,0
2016-01-29T00:04:54.521Z,0
2016-01-29T00:05:54.528Z,0
2016-01-29T00:06:54.516Z,0
2016-01-29T00:07:54.518Z,0
2016-01-29T00:08:54.521Z,0
2016-01-29T00:09:54.539Z,0
2016-01-29T00:10:54.510Z,0
2016-01-29T00:11:54.473Z,0
2016-01-29T00:12:54.560Z,0
2016-01-29T00:13:54.485Z,0
2016-01-29T00:14:54.471Z,0
2016-01-29T00:15:54.520Z,0
2016-01-29T00:16:53.696Z,0
2016-01-29T00:17:54.480Z,0
2016-01-29T00:18:54.483Z,0
2016-01-29T00:19:54.455Z,0
2016-01-29T00:20:54.458Z,0
2016-01-29T00:21:54.461Z,0
2016-01-29T00:22:54.432Z,0
2016-01-29T00:23:54.420Z,0
2016-01-29T00:24:54.453Z,0
2016-01-29T00:25:54.457Z,0
2016-01-29T00:26:54.415Z,0
2016-01-29T00:27:54.480Z,0
2016-01-29T00:28:54.435Z,0
2016-01-29T00:29:54.393Z,0
2016-01-29T00:30:54.120Z,0
2016-01-29T00:31:54.247Z,0
2016-01-29T00:32:54.389Z,0
2016-01-29T00:33:54.408Z,0
2016-01-29T00:34:54.364Z,0
2016-01-29T00:35:54.372Z,0
2016-01-29T00:36:54.390Z,0
2016-01-29T00:37:54.363Z,0
2016-01-29T00:38:54.351Z,0
2016-01-29T00:39:54.387Z,0
2016-01-29T00:40:54.343Z,0
2016-01-29T00:41:54.346Z,0
2016-01-29T00:42:54.348Z,0
2016-01-29T00:43:54.368Z,0
2016-01-29T00:44:54.323Z,0
2016-01-29T00:45:54.325Z,0
2016-01-29T00:46:54.344Z,0
2016-01-29T00:47:54.332Z,0
2016-01-29T00:48:54.319Z,0
2016-01-29T00:49:54.337Z,0
2016-01-29T00:50:54.294Z,0
2016-01-29T00:51:54.299Z,0
2016-01-29T00:52:54.317Z,0
2016-01-29T00:53:54.288Z,0
2016-01-29T00:54:54.276Z,0
2016-01-29T00:55:54.340Z,0
2016-01-29T00:56:54.265Z,0
2016-01-29T00:57:54.266Z,0
2016-01-29T00:58:54.269Z,0
2016-01-29T00:59:54.242Z,0
2016-01-29T01:00:54.275Z,0
2016-01-29T01:01:54.247Z,0
2016-01-29T01:02:54.280Z,0
2016-01-29T01:03:54.253Z,0
2016-01-29T01:04:54.240Z,0
2016-01-29T01:05:54.227Z,0
2016-01-29T01:06:54.230Z,0
2016-01-29T01:07:54.233Z,0
2016-01-29T01:08:54.205Z,0
2016-01-29T01:09:54.207Z,0
2016-01-29T01:10:54.257Z,0
2016-01-29T01:11:54.184Z,0
2016-01-29T01:12:54.186Z,0
2016-01-29T01:13:54.189Z,0
2016-01-29T01:14:54.176Z,0
2016-01-29T01:15:54.166Z,0
2016-01-29T01:16:54.183Z,0
2016-01-29T01:17:54.155Z,0
2016-01-29T01:18:54.173Z,0
2016-01-29T01:19:54.161Z,0
2016-01-29T01:20:54.147Z,0
2016-01-29T01:21:54.151Z,0
2016-01-29T01:22:54.153Z,0
2016-01-29T01:23:54.126Z,0
2016-01-29T01:24:54.113Z,0
2016-01-29T01:25:54.131Z,0
2016-01-29T01:26:54.135Z,0
2016-01-29T01:27:54.106Z,0
2016-01-29T01:28:54.124Z,0
2016-01-29T01:29:54.096Z,0
2016-01-29T01:30:54.099Z,0
2016-01-29T01:31:54.089Z,0
2016-01-29T01:32:53.919Z,0
2016-01-29T01:33:54.077Z,0
2016-01-29T01:34:54.096Z,0
2016-01-29T01:35:54.067Z,0
2016-01-29T01:36:54.039Z,0
2016-01-29T01:37:54.073Z,0
2016-01-29T01:38:54.060Z,0
2016-01-29T01:39:54.048Z,0
2016-01-29T01:40:54.066Z,0
2016-01-29T01:41:54.023Z,0
2016-01-29T01:42:54.025Z,0
2016-01-29T01:43:54.030Z,0
2016-01-29T01:44:53.891Z,0
2016-01-29T01:45:54.019Z,0
2016-01-29T01:46:54.022Z,0
2016-01-29T01:47:54.011Z,0
2016-01-29T01:48:54.014Z,0
2016-01-29T01:49:54.033Z,0
2016-01-29T01:50:53.973Z,0
2016-01-29T01:51:53.976Z,0
2016-01-29T01:52:54.010Z,0
2016-01-29T01:53:53.840Z,0
2016-01-29T01:54:53.952Z,0
2016-01-29T01:55:53.830Z,0
2016-01-29T01:56:53.976Z,0
2016-01-29T01:57:53.993Z,0
2016-01-29T01:58:53.950Z,0
2016-01-29T01:59:53.953Z,0
2016-01-29T02:00:53.955Z,0
2016-01-29T02:01:53.927Z,0
2016-01-29T02:02:53.929Z,0
2016-01-29T02:03:53.922Z,0
2016-01-29T02:04:53.925Z,0
2016-01-29T02:05:53.896Z,0
2016-01-29T02:06:53.914Z,0
2016-01-29T02:07:53.917Z,0
2016-01-29T02:08:53.889Z,0
2016-01-29T02:09:53.896Z,0
2016-01-29T02:10:53.882Z,0
2016-01-29T02:11:53.869Z,0
2016-01-29T02:12:53.857Z,0
2016-01-29T02:13:53.876Z,0
2016-01-29T02:14:53.863Z,0
2016-01-29T02:15:53.849Z,0
2016-01-29T02:16:53.853Z,0
2016-01-29T02:17:53.840Z,0
2016-01-29T02:18:53.828Z,0
2016-01-29T02:19:53.846Z,0
2016-01-29T02:20:53.817Z,0
2016-01-29T02:21:53.821Z,0
2016-01-29T02:22:53.854Z,0
2016-01-29T02:23:53.795Z,0
2016-01-29T02:24:53.798Z,0
2016-01-29T02:25:53.802Z,0
2016-01-29T02:26:53.805Z,0
2016-01-29T02:27:53.760Z,0
2016-01-29T02:28:53.794Z,0
2016-01-29T02:29:53.785Z,0
2016-01-29T02:30:53.755Z,0
2016-01-29T02:31:53.790Z,0
2016-01-29T02:32:53.621Z,0
2016-01-29T02:33:53.750Z,0
2016-01-29T02:34:53.784Z,0
2016-01-29T02:35:53.770Z,0
2016-01-29T02:36:53.743Z,0
2016-01-29T02:37:53.808Z,0
2016-01-29T02:38:53.701Z,0
2016-01-29T02:39:53.704Z,0
2016-01-29T02:40:53.551Z,0
2016-01-29T02:41:53.539Z,0
2016-01-29T02:42:53.698Z,0
2016-01-29T02:43:53.700Z,0
2016-01-29T02:44:53.688Z,0
2016-01-29T02:45:53.660Z,0
2016-01-29T02:46:53.678Z,0
2016-01-29T02:47:53.681Z,0
2016-01-29T02:48:53.652Z,0
2016-01-29T02:49:53.671Z,0
2016-01-29T02:50:53.643Z,0
2016-01-29T02:51:53.631Z,0
2016-01-29T02:52:53.648Z,0
2016-01-29T02:53:53.620Z,0
2016-01-29T02:54:53.624Z,0
2016-01-29T02:55:53.673Z,0
2016-01-29T02:56:53.614Z,0
2016-01-29T02:57:53.617Z,0
2016-01-29T02:58:53.590Z,0
2016-01-29T02:59:53.592Z,0
2016-01-29T03:00:53.595Z,0
2016-01-29T03:01:53.582Z,0
2016-01-29T03:02:53.589Z,0
2016-01-29T03:03:53.560Z,0
2016-01-29T03:04:53.580Z,0
2016-01-29T03:05:53.550Z,0
2016-01-29T03:06:53.554Z,0
2016-01-29T03:07:53.542Z,0
2016-01-29T03:08:53.560Z,0
2016-01-29T03:09:53.516Z,0
2016-01-29T03:10:53.613Z,0
2016-01-29T03:11:53.570Z,0
2016-01-29T03:12:53.494Z,0
2016-01-29T03:13:53.498Z,0
2016-01-29T03:14:53.519Z,0
2016-01-29T03:15:53.474Z,0
2016-01-29T03:16:53.477Z,0
2016-01-29T03:17:53.464Z,0
2016-01-29T03:18:53.484Z,0
2016-01-29T03:19:53.456Z,0
2016-01-29T03:20:53.442Z,0
2016-01-29T03:21:53.445Z,0
2016-01-29T03:22:53.575Z,0
2016-01-29T03:23:53.469Z,0
2016-01-29T03:24:53.439Z,0
2016-01-29T03:25:53.520Z,0
2016-01-29T03:26:53.539Z,0
2016-01-29T03:27:53.762Z,0
2016-01-29T03:28:53.442Z,0
2016-01-29T03:29:53.523Z,0
2016-01-29T03:30:53.384Z,0
2016-01-29T03:31:53.387Z,0
2016-01-29T03:32:53.374Z,0
2016-01-29T03:33:53.471Z,0
2016-01-29T03:34:53.380Z,0
2016-01-29T03:35:53.351Z,0
2016-01-29T03:36:53.356Z,0
2016-01-29T03:37:53.358Z,0
2016-01-29T03:38:53.393Z,0
2016-01-29T03:39:53.318Z,0
2016-01-29T03:40:53.337Z,0
2016-01-29T03:41:53.340Z,0
2016-01-29T03:42:53.327Z,0
2016-01-29T03:43:53.315Z,0
2016-01-29T03:44:53.302Z,0
2016-01-29T03:45:53.305Z,0
2016-01-29T03:46:53.292Z,0
2016-01-29T03:47:53.279Z,0
2016-01-29T03:48:53.316Z,0
2016-01-29T03:49:53.287Z,0
2016-01-29T03:50:53.243Z,0
2016-01-29T03:51:53.246Z,0
2016-01-29T03:52:53.270Z,0
2016-01-29T03:53:53.242Z,0
2016-01-29T03:54:53.229Z,0
2016-01-29T03:55:53.279Z,0
2016-01-29T03:56:53.235Z,0
2016-01-29T03:57:53.206Z,0
2016-01-29T03:58:53.226Z,0
2016-01-29T03:59:53.228Z,0
2016-01-29T04:00:53.202Z,0
2016-01-29T04:01:54.237Z,0
2016-01-29T04:02:53.223Z,0
2016-01-29T04:03:53.008Z,0
2016-01-29T04:04:53.183Z,0
2016-01-29T04:05:53.170Z,0
2016-01-29T04:06:53.173Z,0
2016-01-29T04:07:53.175Z,0
2016-01-29T04:08:53.179Z,0
2016-01-29T04:09:53.181Z,0
2016-01-29T04:10:53.138Z,0
2016-01-29T04:11:53.141Z,0
2016-01-29T04:12:53.145Z,0
2016-01-29T04:13:53.133Z,0
2016-01-29T04:14:53.135Z,0
2016-01-29T04:15:53.138Z,0
2016-01-29T04:16:53.141Z,0
2016-01-29T04:17:52.955Z,0
2016-01-29T04:18:52.944Z,0
2016-01-29T04:19:52.915Z,0
2016-01-29T04:20:52.918Z,0
2016-01-29T04:21:53.062Z,0
2016-01-29T04:22:53.236Z,0
2016-01-29T04:23:53.067Z,0
2016-01-29T04:24:53.196Z,0
2016-01-29T04:25:53.043Z,0
2016-01-29T04:26:53.060Z,0
2016-01-29T04:27:53.052Z,0
2016-01-29T04:28:53.024Z,0
2016-01-29T04:29:53.026Z,0
2016-01-29T04:30:53.029Z,0
2016-01-29T04:31:53.032Z,0
2016-01-29T04:32:53.005Z,0
2016-01-29T04:33:53.007Z,0
2016-01-29T04:34:53.009Z,0
2016-01-29T04:35:53.044Z,0
2016-01-29T04:36:52.985Z,0
2016-01-29T04:37:52.988Z,0
2016-01-29T04:38:53.022Z,0
2016-01-29T04:39:53.040Z,0
2016-01-29T04:40:52.808Z,0
2016-01-29T04:41:52.967Z,0
2016-01-29T04:42:52.986Z,0
2016-01-29T04:43:52.942Z,0
2016-01-29T04:44:52.944Z,0
2016-01-29T04:45:52.964Z,0
2016-01-29T04:46:52.936Z,0
2016-01-29T04:47:52.923Z,0
2016-01-29T04:48:52.941Z,0
2016-01-29T04:49:52.897Z,0
2016-01-29T04:50:52.916Z,0
2016-01-29T04:51:52.964Z,0
2016-01-29T04:52:52.921Z,0
2016-01-29T04:53:52.955Z,0
2016-01-29T04:54:52.880Z,0
2016-01-29T04:55:52.882Z,0
2016-01-29T04:56:52.963Z,0
2016-01-29T04:57:52.872Z,0
2016-01-29T04:58:52.843Z,0
2016-01-29T04:59:52.837Z,0
2016-01-29T05:00:52.887Z,0
2016-01-29T05:01:52.858Z,0
2016-01-29T05:02:52.829Z,0
2016-01-29T05:03:52.831Z,0
2016-01-29T05:04:52.804Z,0
2016-01-29T05:05:52.806Z,0
2016-01-29T05:06:52.809Z,0
2016-01-29T05:07:52.813Z,0
2016-01-29T05:08:52.659Z,0
2016-01-29T05:09:52.771Z,0
2016-01-29T05:10:52.773Z,0
2016-01-29T05:11:52.762Z,0
2016-01-29T05:12:52.749Z,0
2016-01-29T05:13:52.767Z,0
2016-01-29T05:14:52.771Z,0
2016-01-29T05:15:52.728Z,0
2016-01-29T05:16:52.746Z,0
2016-01-29T05:17:52.733Z,0
2016-01-29T05:18:52.720Z,0
2016-01-29T05:19:52.709Z,0
2016-01-29T05:20:52.711Z,0
2016-01-29T05:21:52.699Z,0
2016-01-29T05:22:52.702Z,0
2016-01-29T05:23:52.689Z,0
2016-01-29T05:24:52.693Z,0
2016-01-29T05:25:52.695Z,0
2016-01-29T05:26:52.667Z,0
2016-01-29T05:27:52.655Z,0
2016-01-29T05:28:52.658Z,0
2016-01-29T05:29:52.645Z,0
2016-01-29T05:30:52.484Z,0
2016-01-29T05:31:52.487Z,0
2016-01-29T05:32:52.631Z,0
2016-01-29T05:33:52.634Z,0
2016-01-29T05:34:52.636Z,0
2016-01-29T05:35:52.656Z,0
2016-01-29T05:36:52.643Z,0
2016-01-29T05:37:52.614Z,0
2016-01-29T05:38:52.601Z,0
2016-01-29T05:39:52.607Z,0
2016-01-29T05:40:52.641Z,0
2016-01-29T05:41:52.597Z,0
2016-01-29T05:42:52.615Z,0
2016-01-29T05:43:52.621Z,0
2016-01-29T05:44:52.607Z,0
2016-01-29T05:45:52.547Z,0
2016-01-29T05:46:52.597Z,0
2016-01-29T05:47:52.537Z,0
2016-01-29T05:48:52.540Z,0
2016-01-29T05:49:52.543Z,0
2016-01-29T05:50:52.531Z,0
2016-01-29T05:51:52.519Z,0
2016-01-29T05:52:52.631Z,0
2016-01-29T05:53:52.508Z,0
2016-01-29T05:54:52.480Z,0
2016-01-29T05:55:52.531Z,0
2016-01-29T05:56:52.470Z,0
2016-01-29T05:57:52.475Z,0
2016-01-29T05:58:52.477Z,0
2016-01-29T05:59:52.466Z,0
2016-01-29T06:00:52.437Z,0
2016-01-29T06:01:52.457Z,0
2016-01-29T06:02:52.483Z,0
2016-01-29T06:03:52.516Z,0
2016-01-29T06:04:52.441Z,0
2016-01-29T06:05:52.415Z,0
2016-01-29T06:06:52.434Z,0
2016-01-29T06:07:52.421Z,0
2016-01-29T06:08:52.424Z,0
2016-01-29T06:09:52.427Z,0
2016-01-29T06:10:52.383Z,0
2016-01-29T06:11:52.370Z,0
2016-01-29T06:12:52.391Z,0
2016-01-29T06:13:52.363Z,0
2016-01-29T06:14:52.257Z,0
2016-01-29T06:15:52.385Z,0
2016-01-29T06:16:52.340Z,0
2016-01-29T06:17:52.358Z,0
2016-01-29T06:18:52.330Z,0
2016-01-29T06:19:52.348Z,0
2016-01-29T06:20:52.351Z,0
2016-01-29T06:21:52.322Z,0
2016-01-29T06:22:52.331Z,0
2016-01-29T06:23:52.333Z,0
2016-01-29T06:24:52.303Z,0
2016-01-29T06:25:52.306Z,0
2016-01-29T06:26:52.310Z,0
2016-01-29T06:27:52.282Z,0
2016-01-29T06:28:52.268Z,0
2016-01-29T06:29:52.271Z,0
2016-01-29T06:30:52.294Z,0
2016-01-29T06:31:52.249Z,0
2016-01-29T06:32:52.240Z,0
2016-01-29T06:33:52.243Z,0
2016-01-29T06:34:52.249Z,0
2016-01-29T06:35:52.657Z,0
2016-01-29T06:36:52.239Z,0
2016-01-29T06:37:52.242Z,0
2016-01-29T06:38:52.230Z,0
2016-01-29T06:39:52.201Z,0
2016-01-29T06:40:52.187Z,5
2016-01-29T06:41:52.207Z,5
2016-01-29T06:42:52.194Z,5
2016-01-29T06:43:52.244Z,5
2016-01-29T06:44:52.183Z,5
2016-01-29T06:45:52.202Z,5
2016-01-29T06:46:52.144Z,5
2016-01-29T06:47:52.146Z,5
2016-01-29T06:48:52.289Z,10
2016-01-29T06:49:52.198Z,10
2016-01-29T06:50:52.142Z,10
2016-01-29T06:51:52.128Z,10
2016-01-29T06:52:52.131Z,10
2016-01-29T06:53:52.165Z,10
2016-01-29T06:54:52.122Z,15
2016-01-29T06:55:52.156Z,15
2016-01-29T06:56:52.111Z,15
2016-01-29T06:57:52.146Z,15
2016-01-29T06:58:52.102Z,15
2016-01-29T06:59:52.074Z,20
2016-01-29T07:00:51.920Z,20
2016-01-29T07:01:52.079Z,20
2016-01-29T07:02:52.053Z,20
2016-01-29T07:03:52.039Z,20
2016-01-29T07:04:52.058Z,25
2016-01-29T07:05:52.045Z,25
2016-01-29T07:06:52.048Z,25
2016-01-29T07:07:52.034Z,25
2016-01-29T07:08:52.054Z,25
2016-01-29T07:09:52.025Z,30
2016-01-29T07:10:51.997Z,30
2016-01-29T07:11:52.015Z,30
2016-01-29T07:12:52.033Z,30
2016-01-29T07:13:52.006Z,35
2016-01-29T07:14:51.994Z,35
2016-01-29T07:15:51.996Z,35
2016-01-29T07:16:51.998Z,35
2016-01-29T07:17:51.954Z,35
2016-01-29T07:18:51.957Z,40
2016-01-29T07:19:51.966Z,40
2016-01-29T07:20:51.969Z,40
2016-01-29T07:21:51.972Z,40
2016-01-29T07:22:51.944Z,40
2016-01-29T07:23:51.947Z,45
2016-01-29T07:24:51.950Z,45
2016-01-29T07:25:51.937Z,45
2016-01-29T07:26:51.909Z,45
2016-01-29T07:27:51.912Z,45
2016-01-29T07:28:51.915Z,50
2016-01-29T07:29:51.902Z,50
2016-01-29T07:30:51.920Z,50
2016-01-29T07:31:51.938Z,50
2016-01-29T07:32:51.878Z,50
2016-01-29T07:33:51.882Z,50
2016-01-29T07:34:51.893Z,55
2016-01-29T07:35:51.883Z,55
2016-01-29T07:36:51.902Z,55
2016-01-29T07:37:51.888Z,55
2016-01-29T07:38:51.844Z,55
2016-01-29T07:39:51.830Z,60
2016-01-29T07:40:51.833Z,60
2016-01-29T07:41:51.824Z,60
2016-01-29T07:42:51.827Z,60
2016-01-29T07:43:51.830Z,60
2016-01-29T07:44:51.832Z,60
2016-01-29T07:45:51.851Z,60
2016-01-29T07:46:51.853Z,65
2016-01-29T07:47:51.800Z,65
2016-01-29T07:48:51.802Z,65
2016-01-29T07:49:51.790Z,65
2016-01-29T07:50:51.792Z,65
2016-01-29T07:51:51.795Z,65
2016-01-29T07:52:51.641Z,65
2016-01-29T07:53:51.754Z,70
2016-01-29T07:54:51.757Z,70
2016-01-29T07:55:51.807Z,70
2016-01-29T07:56:51.779Z,70
2016-01-29T07:57:51.766Z,70
2016-01-29T07:58:51.785Z,70
2016-01-29T07:59:51.725Z,70
2016-01-29T08:00:51.586Z,70
2016-01-29T08:01:51.747Z,75
2016-01-29T08:02:51.733Z,75
2016-01-29T08:03:51.704Z,75
2016-01-29T08:04:51.706Z,75
2016-01-29T08:05:51.710Z,75
2016-01-29T08:06:51.729Z,75
2016-01-29T08:07:51.732Z,75
2016-01-29T08:08:51.687Z,75
2016-01-29T08:09:51.678Z,75
2016-01-29T08:10:51.712Z,80
2016-01-29T08:11:51.699Z,80
2016-01-29T08:12:51.686Z,80
2016-01-29T08:13:51.677Z,80
2016-01-29T08:14:51.680Z,80
2016-01-29T08:15:51.682Z,80
2016-01-29T08:16:51.685Z,80
2016-01-29T08:17:51.657Z,80
2016-01-29T08:18:51.645Z,80
2016-01-29T08:19:51.663Z,80
2016-01-29T08:20:51.666Z,80
2016-01-29T08:21:51.747Z,85
2016-01-29T08:22:52.456Z,85
2016-01-29T08:23:52.584Z,85
2016-01-29T08:24:51.727Z,85
2016-01-29T08:25:52.746Z,85
2016-01-29T08:26:51.734Z,85
2016-01-29T08:27:51.706Z,85
2016-01-29T08:28:51.629Z,85
2016-01-29T08:29:51.586Z,85
2016-01-29T08:30:51.590Z,85
2016-01-29T08:31:51.620Z,85
2016-01-29T08:32:51.607Z,90
2016-01-29T08:33:51.579Z,90
2016-01-29T08:34:51.599Z,90
2016-01-29T08:35:51.569Z,90
2016-01-29T08:36:51.571Z,90
2016-01-29T08:37:51.575Z,90
2016-01-29T08:38:51.595Z,90
2016-01-29T08:39:51.551Z,90
2016-01-29T08:40:51.537Z,90
2016-01-29T08:41:51.583Z,90
2016-01-29T08:42:51.527Z,90
2016-01-29T08:43:51.563Z,90
2016-01-29T08:44:51.505Z,90
2016-01-29T08:45:51.494Z,90
2016-01-29T08:46:51.456Z,95
2016-01-29T08:47:51.470Z,95
2016-01-29T08:48:51.498Z,95
2016-01-29T08:49:51.434Z,95
2016-01-29T08:50:51.512Z,95
2016-01-29T08:51:51.901Z,95
2016-01-29T08:52:51.761Z,95
2016-01-29T08:53:50.652Z,95
2016-01-29T08:54:51.403Z,95
2016-01-29T08:55:51.997Z,95
2016-01-29T08:56:51.389Z,95
2016-01-29T08:57:51.407Z,95
2016-01-29T08:58:51.379Z,95
2016-01-29T08:59:52.038Z,95
2016-01-29T09:00:51.384Z,95
2016-01-29T09:01:52.558Z,95
2016-01-29T09:02:52.332Z,100
2016-01-29T09:03:51.601Z,100
2016-01-29T09:04:51.665Z,95
2016-01-29T09:05:51.605Z,100
2016-01-29T09:06:51.358Z,100
2016-01-29T09:07:51.361Z,100
2016-01-29T09:08:51.363Z,100
2016-01-29T09:09:52.210Z,100
2016-01-29T09:10:52.275Z,100
2016-01-29T09:11:51.699Z,100
2016-01-29T09:12:52.080Z,100
2016-01-29T09:13:51.336Z,100
2016-01-29T09:14:51.339Z,100
2016-01-29T09:15:51.357Z,105
2016-01-29T09:16:51.359Z,105
2016-01-29T09:17:51.320Z,110
2016-01-29T09:18:51.322Z,120
2016-01-29T09:19:51.315Z,135
2016-01-29T09:20:51.332Z,145
2016-01-29T09:21:51.352Z,145
2016-01-29T09:22:51.323Z,145
2016-01-29T09:23:51.684Z,145
2016-01-29T09:24:51.718Z,150
2016-01-29T09:25:51.801Z,155
2016-01-29T09:26:51.773Z,155
2016-01-29T09:27:51.713Z,150
2016-01-29T09:28:51.591Z,155
2016-01-29T09:29:51.642Z,160
2016-01-29T09:30:51.754Z,165
2016-01-29T09:31:51.821Z,170
2016-01-29T09:32:51.746Z,170
2016-01-29T09:33:51.673Z,175
2016-01-29T09:34:51.692Z,175
2016-01-29T09:35:51.757Z,180
2016-01-29T09:36:51.634Z,180
2016-01-29T09:37:51.717Z,165
2016-01-29T09:38:51.704Z,155
2016-01-29T09:39:51.768Z,150
2016-01-29T09:40:51.959Z,150
2016-01-29T09:41:51.574Z,150
2016-01-29T09:42:51.655Z,165
2016-01-29T09:43:51.595Z,170
2016-01-29T09:44:51.832Z,170
2016-01-29T09:45:51.775Z,170
2016-01-29T09:46:50.871Z,180
2016-01-29T09:47:51.577Z,195
2016-01-29T09:48:51.690Z,200
2016-01-29T09:49:51.725Z,200
2016-01-29T09:50:51.728Z,190
2016-01-29T09:51:51.778Z,180
2016-01-29T09:52:51.623Z,170
2016-01-29T09:53:51.646Z,165
2016-01-29T09:54:51.695Z,170
2016-01-29T09:55:51.760Z,170
2016-01-29T09:56:51.825Z,185
2016-01-29T09:57:51.626Z,190
2016-01-29T09:58:51.254Z,190
2016-01-29T09:59:51.787Z,190
2016-01-29T10:00:51.525Z,190
2016-01-29T10:01:51.716Z,185
2016-01-29T10:02:51.318Z,185
2016-01-29T10:03:51.243Z,180
2016-01-29T10:04:51.246Z,190
2016-01-29T10:05:51.296Z,195
2016-01-29T10:06:51.252Z,180
2016-01-29T10:07:51.255Z,170
2016-01-29T10:08:51.257Z,165
2016-01-29T10:09:51.246Z,165
2016-01-29T10:10:51.263Z,165
2016-01-29T10:11:51.282Z,160
2016-01-29T10:12:51.253Z,155
2016-01-29T10:13:51.240Z,150
2016-01-29T10:14:51.274Z,150
2016-01-29T10:15:51.261Z,145
2016-01-29T10:16:51.266Z,155
2016-01-29T10:17:51.269Z,150
2016-01-29T10:18:51.194Z,150
2016-01-29T10:19:52.384Z,150
2016-01-29T10:20:51.246Z,155
2016-01-29T10:21:51.265Z,165
2016-01-29T10:22:51.269Z,175
2016-01-29T10:23:51.755Z,180
2016-01-29T10:24:51.273Z,185
2016-01-29T10:25:51.261Z,185
2016-01-29T10:26:51.248Z,190
2016-01-29T10:27:51.641Z,190
2016-01-29T10:28:51.300Z,195
2016-01-29T10:29:51.256Z,200
2016-01-29T10:30:51.743Z,195
2016-01-29T10:31:51.605Z,190
2016-01-29T10:32:51.484Z,195
2016-01-29T10:33:50.925Z,200
2016-01-29T10:34:51.585Z,205
2016-01-29T10:35:51.712Z,215
2016-01-29T10:36:51.578Z,210
2016-01-29T10:37:51.722Z,205
2016-01-29T10:38:51.600Z,205
2016-01-29T10:39:51.665Z,205
2016-01-29T10:40:51.652Z,200
2016-01-29T10:41:51.687Z,200
2016-01-29T10:42:51.674Z,200
2016-01-29T10:43:51.677Z,200
2016-01-29T10:44:51.570Z,200
2016-01-29T10:45:51.652Z,200
2016-01-29T10:46:51.560Z,200
2016-01-29T10:47:51.672Z,200
2016-01-29T10:48:51.598Z,200
2016-01-29T10:49:51.710Z,195
2016-01-29T10:51:22.682Z,200
2016-01-29T10:51:52.262Z,205
2016-01-29T11:00:19.255Z,210
2016-01-29T11:00:31.958Z,210
2016-01-29T11:01:31.976Z,210
2016-01-29T11:02:32.386Z,220
2016-01-29T11:03:38.552Z,210
2016-01-29T11:04:31.974Z,205
2016-01-29T11:05:31.965Z,205
2016-01-29T11:06:31.984Z,210
2016-01-29T11:07:44.739Z,210
2016-01-29T11:09:12.851Z,215
2016-01-29T11:09:31.961Z,215
2016-01-29T11:10:31.980Z,215
2016-01-29T11:11:31.999Z,215
2016-01-29T11:12:32.501Z,215
2016-01-29T11:20:12.854Z,205
2016-01-29T11:20:25.525Z,205
2016-01-29T11:21:26.310Z,205
2016-01-29T11:22:26.066Z,210
2016-01-29T11:23:27.131Z,215
2016-01-29T11:24:25.727Z,215
2016-01-29T11:25:25.558Z,205
2016-01-29T11:26:26.140Z,200
2016-01-29T11:27:25.595Z,195
2016-01-29T11:28:26.067Z,195
2016-01-29T11:29:25.664Z,200
2016-01-29T11:30:25.888Z,200
2016-01-29T11:31:25.562Z,200
2016-01-29T11:32:25.581Z,200
2016-01-29T11:33:25.827Z,200
2016-01-29T11:34:25.454Z,205
2016-01-29T11:35:25.598Z,210
2016-01-29T11:36:25.726Z,215
2016-01-29T11:37:25.619Z,220
2016-01-29T11:38:25.622Z,225
2016-01-29T11:39:25.594Z,230
2016-01-29T11:40:26.034Z,225
2016-01-29T11:41:25.631Z,225
2016-01-29T11:42:25.619Z,215
2016-01-29T11:43:25.636Z,205
2016-01-29T11:44:25.686Z,205
2016-01-29T11:45:25.657Z,205
2016-01-29T11:46:26.131Z,205
2016-01-29T11:47:25.633Z,205
2016-01-29T11:48:25.636Z,200
2016-01-29T11:49:25.841Z,205
2016-01-29T11:50:25.657Z,200
2016-01-29T11:51:25.644Z,195
2016-01-29T11:52:25.632Z,195
2016-01-29T11:53:26.135Z,190
2016-01-29T11:54:25.654Z,185
2016-01-29T11:55:25.719Z,185
2016-01-29T11:56:25.705Z,180
2016-01-29T11:57:25.694Z,185
2016-01-29T11:58:25.758Z,180
2016-01-29T11:59:25.651Z,185
2016-01-29T12:00:25.685Z,180
2016-01-29T12:01:25.863Z,180
2016-01-29T12:02:25.694Z,180
2016-01-29T12:03:25.728Z,185
2016-01-29T12:04:25.669Z,195
2016-01-29T12:05:25.674Z,200
2016-01-29T12:06:25.682Z,205
2016-01-29T12:07:25.733Z,210
2016-01-29T12:08:25.819Z,205
2016-01-29T12:09:25.825Z,205
2016-01-29T12:10:25.719Z,200
2016-01-29T12:11:26.098Z,200
2016-01-29T12:12:26.007Z,205
2016-01-29T12:13:25.713Z,210
2016-01-29T12:14:25.778Z,210
2016-01-29T12:15:25.718Z,210
2016-01-29T12:16:25.736Z,210
2016-01-29T12:17:25.771Z,210
2016-01-29T12:18:25.727Z,215
2016-01-29T12:19:25.780Z,210
2016-01-29T12:20:25.908Z,210
2016-01-29T12:21:25.708Z,205
2016-01-29T12:22:25.758Z,205
2016-01-29T12:23:26.354Z,205
2016-01-29T12:24:25.872Z,200
2016-01-29T12:25:25.766Z,200
2016-01-29T12:26:25.784Z,195
2016-01-29T12:27:25.756Z,185
2016-01-29T12:28:25.759Z,180
2016-01-29T12:29:25.762Z,175
2016-01-29T12:30:25.749Z,175
2016-01-29T12:31:25.798Z,165
2016-01-29T12:32:25.787Z,170
2016-01-29T12:33:26.040Z,170
2016-01-29T12:34:25.798Z,175
2016-01-29T12:35:25.159Z,180
2016-01-29T12:36:25.804Z,180
2016-01-29T12:37:25.806Z,185
2016-01-29T12:38:25.823Z,185
2016-01-29T12:39:25.843Z,185
2016-01-29T12:40:25.798Z,185
2016-01-29T12:41:25.833Z,185
2016-01-29T12:42:25.807Z,185
2016-01-29T12:43:25.826Z,180
2016-01-29T12:44:25.829Z,175
2016-01-29T12:45:25.847Z,165
2016-01-29T12:46:25.838Z,165
2016-01-29T12:47:25.826Z,165
2016-01-29T12:48:25.844Z,165
2016-01-29T12:49:27.331Z,160
2016-01-29T12:50:25.600Z,160
2016-01-29T12:51:26.166Z,155
2016-01-29T12:52:26.043Z,150
2016-01-29T12:53:26.124Z,150
2016-01-29T12:54:26.534Z,145
2016-01-29T12:55:25.968Z,150
2016-01-29T12:56:26.519Z,150
2016-01-29T12:57:25.896Z,150
2016-01-29T12:58:28.200Z,145
2016-01-29T12:59:25.848Z,145
2016-01-29T13:00:25.897Z,145
2016-01-29T13:01:25.884Z,150
2016-01-29T13:02:25.887Z,150
2016-01-29T13:03:25.682Z,150
2016-01-29T13:04:25.920Z,150
2016-01-29T13:05:25.907Z,150
2016-01-29T13:06:25.925Z,150
2016-01-29T13:07:25.896Z,150
2016-01-29T13:08:25.930Z,150
2016-01-29T13:09:25.933Z,150
2016-01-29T13:10:25.967Z,150
2016-01-29T13:11:25.906Z,145
2016-01-29T13:12:25.928Z,140
2016-01-29T13:13:25.930Z,135
2016-01-29T13:14:25.916Z,135
2016-01-29T13:15:25.935Z,135
2016-01-29T13:16:25.955Z,135
2016-01-29T13:17:25.942Z,140
2016-01-29T13:18:25.964Z,140
2016-01-29T13:19:25.951Z,140
2016-01-29T13:20:25.953Z,140
2016-01-29T13:21:25.941Z,145
2016-01-29T13:22:25.990Z,145
2016-01-29T13:23:25.963Z,145
2016-01-29T13:24:25.965Z,150
2016-01-29T13:25:26.046Z,145
2016-01-29T13:26:26.002Z,145
2016-01-29T13:27:25.977Z,145
2016-01-29T13:28:25.980Z,140
2016-01-29T13:29:25.810Z,145
2016-01-29T13:30:25.969Z,160
2016-01-29T13:31:25.988Z,155
2016-01-29T13:32:25.992Z,155
2016-01-29T13:33:25.994Z,165
2016-01-29T13:34:25.980Z,165
2016-01-29T13:35:26.024Z,170
2016-01-29T13:36:25.996Z,170
2016-01-29T13:37:26.045Z,170
2016-01-29T13:38:25.985Z,170
2016-01-29T13:39:25.988Z,170
2016-01-29T13:40:25.991Z,165
2016-01-29T13:41:26.009Z,165
2016-01-29T13:42:26.028Z,165
2016-01-29T13:43:26.066Z,160
2016-01-29T13:44:27.194Z,160
2016-01-29T13:45:26.011Z,155
2016-01-29T13:46:26.014Z,160
2016-01-29T13:47:26.032Z,155
2016-01-29T13:48:26.051Z,155
2016-01-29T13:49:26.046Z,150
2016-01-29T13:50:26.829Z,135
2016-01-29T13:51:26.051Z,130
2016-01-29T13:52:26.319Z,130
2016-01-29T13:53:26.168Z,130
2016-01-29T13:54:26.061Z,125
2016-01-29T13:55:26.079Z,120
2016-01-29T13:56:26.097Z,120
2016-01-29T13:57:26.054Z,115
2016-01-29T13:58:26.073Z,115
2016-01-29T13:59:26.091Z,110
2016-01-29T14:00:26.110Z,110
2016-01-29T14:01:26.066Z,110
2016-01-29T14:02:25.928Z,110
2016-01-29T14:03:26.088Z,105
2016-01-29T14:04:26.077Z,105
2016-01-29T14:05:26.067Z,105
2016-01-29T14:06:26.100Z,100
2016-01-29T14:07:26.104Z,95
2016-01-29T14:08:26.127Z,90
2016-01-29T14:09:26.129Z,85
2016-01-29T14:10:26.101Z,85
2016-01-29T14:11:25.463Z,90
2016-01-29T14:12:26.107Z,85
2016-01-29T14:13:26.124Z,85
2016-01-29T14:14:26.143Z,85
2016-01-29T14:15:26.146Z,85
2016-01-29T14:16:26.133Z,85
2016-01-29T14:17:26.136Z,80
2016-01-29T14:18:26.625Z,80
2016-01-29T14:19:26.220Z,80
2016-01-29T14:20:26.223Z,80
2016-01-29T14:21:26.133Z,70
2016-01-29T14:22:26.354Z,70
2016-01-29T14:23:26.202Z,70
2016-01-29T14:24:26.204Z,70
2016-01-29T14:25:26.160Z,70
2016-01-29T14:26:26.164Z,80
2016-01-29T14:27:26.167Z,75
2016-01-29T14:28:26.169Z,75
2016-01-29T14:29:26.188Z,65
2016-01-29T14:30:26.223Z,60
2016-01-29T14:31:26.179Z,60
2016-01-29T14:32:26.166Z,55